createdAt,value
2017-12-03T00:00:03.268Z,50.63
2017-12-03T00:02:36.526Z,57.30
2017-12-03T00:05:09.583Z,51.47
2017-12-03T00:07:43.008Z,58.13
2017-12-03T00:10:16.353Z,59.80
2017-12-03T00:12:50.498Z,51.43
2017-12-03T00:15:23.672Z,61.57
2017-12-03T00:17:56.193Z,56.43
2017-12-03T00:20:28.767Z,59.20
2017-12-03T00:23:01.289Z,57.93
2017-12-03T00:25:33.824Z,54.67
2017-12-03T00:28:07.102Z,56.40
2017-12-03T00:30:39.895Z,53.47
2017-12-03T00:33:13.235Z,55.43
2017-12-03T00:35:45.777Z,60.00
2017-12-03T00:38:19.056Z,59.07
2017-12-03T00:40:51.597Z,59.97
2017-12-03T00:43:24.915Z,59.10
2017-12-03T00:45:58.436Z,57.93
2017-12-03T00:48:30.985Z,64.03
2017-12-03T00:51:03.525Z,60.73
2017-12-03T00:53:36.032Z,62.07
2017-12-03T00:56:08.573Z,61.57
2017-12-03T00:58:41.081Z,58.40
2017-12-03T01:01:13.613Z,63.47
2017-12-03T01:03:46.125Z,58.00
2017-12-03T01:06:19.020Z,63.00
2017-12-03T01:08:51.556Z,60.30
2017-12-03T01:11:24.932Z,64.40
2017-12-03T01:13:57.449Z,61.83
2017-12-03T01:16:30.510Z,64.00
2017-12-03T01:19:04.402Z,63.07
2017-12-03T01:21:39.040Z,62.93
2017-12-03T01:24:14.239Z,63.40
2017-12-03T01:26:48.031Z,60.40
2017-12-03T01:29:21.145Z,59.30
2017-12-03T01:31:54.923Z,61.03
2017-12-03T01:34:27.948Z,62.43
2017-12-03T01:37:01.901Z,64.73
2017-12-03T01:39:37.368Z,61.70
2017-12-03T01:42:13.179Z,57.57
2017-12-03T01:44:47.673Z,57.67
2017-12-03T01:47:21.728Z,63.00
2017-12-03T01:49:55.596Z,55.83
2017-12-03T01:52:32.176Z,63.53
2017-12-03T01:55:07.661Z,59.00
2017-12-03T01:57:42.661Z,60.47
2017-12-03T02:00:15.473Z,60.30
2017-12-03T02:02:48.121Z,59.40
2017-12-03T02:05:20.886Z,57.23
2017-12-03T02:07:54.223Z,60.50
2017-12-03T02:10:26.789Z,60.60
2017-12-03T02:12:59.417Z,58.10
2017-12-03T02:15:31.988Z,59.93
2017-12-03T02:18:04.575Z,57.60
2017-12-03T02:20:37.701Z,65.43
2017-12-03T02:23:10.443Z,70.00
2017-12-03T02:25:43.042Z,69.33
2017-12-03T02:28:15.607Z,63.73
2017-12-03T02:30:48.270Z,69.80
2017-12-03T02:33:20.853Z,69.23
2017-12-03T02:35:55.282Z,59.33
2017-12-03T02:38:27.841Z,60.13
2017-12-03T02:41:01.501Z,66.97
2017-12-03T02:43:34.393Z,65.13
2017-12-03T02:46:07.290Z,70.43
2017-12-03T02:48:40.042Z,64.20
2017-12-03T02:51:13.096Z,65.43
2017-12-03T02:53:46.663Z,69.37
2017-12-03T02:56:19.619Z,71.70
2017-12-03T02:58:52.237Z,65.30
2017-12-03T03:01:24.769Z,64.47
2017-12-03T03:03:58.073Z,65.70
2017-12-03T03:06:31.506Z,62.57
2017-12-03T03:09:04.078Z,67.63
2017-12-03T03:11:37.091Z,69.50
2017-12-03T03:14:10.214Z,77.30
2017-12-03T03:16:43.900Z,67.13
2017-12-03T03:19:17.843Z,75.93
2017-12-03T03:21:51.973Z,69.00
2017-12-03T03:24:24.999Z,62.90
2017-12-03T03:26:58.050Z,66.43
2017-12-03T03:29:31.956Z,65.70
2017-12-03T03:32:05.811Z,65.23
2017-12-03T03:34:39.668Z,67.47
2017-12-03T03:37:13.616Z,65.13
2017-12-03T03:39:46.887Z,71.40
2017-12-03T03:42:19.891Z,58.60
2017-12-03T03:44:53.496Z,61.87
2017-12-03T03:47:26.880Z,60.83
2017-12-03T03:50:00.017Z,58.93
2017-12-03T03:52:34.249Z,66.23
2017-12-03T03:55:08.398Z,63.43
2017-12-03T03:57:42.211Z,50.17
2017-12-03T04:00:16.964Z,57.60
2017-12-03T04:02:51.253Z,56.43
2017-12-03T04:05:25.660Z,54.83
2017-12-03T04:07:59.688Z,54.70
2017-12-03T04:10:33.662Z,55.93
2017-12-03T04:13:06.811Z,55.20
2017-12-03T04:15:40.048Z,49.80
2017-12-03T04:18:13.086Z,54.10
2017-12-03T04:20:46.063Z,52.47
2017-12-03T04:23:19.100Z,58.23
2017-12-03T04:25:52.243Z,51.50
2017-12-03T04:28:25.438Z,56.43
2017-12-03T04:30:59.309Z,48.87
2017-12-03T04:33:32.595Z,55.33
2017-12-03T04:36:06.402Z,52.03
2017-12-03T04:38:39.524Z,47.53
2017-12-03T04:41:12.630Z,56.10
2017-12-03T04:43:47.341Z,50.40
2017-12-03T04:46:20.338Z,45.87
2017-12-03T04:48:53.215Z,48.57
2017-12-03T04:51:27.036Z,47.07
2017-12-03T04:54:01.320Z,44.80
2017-12-03T04:56:34.513Z,45.03
2017-12-03T04:59:07.496Z,48.63
2017-12-03T05:01:41.994Z,38.63
2017-12-03T05:04:15.127Z,42.47
2017-12-03T05:06:48.351Z,44.80
2017-12-03T05:09:22.116Z,36.67
2017-12-03T05:11:55.143Z,40.57
2017-12-03T05:14:28.830Z,40.87
2017-12-03T05:17:01.941Z,34.83
2017-12-03T05:19:34.978Z,40.10
2017-12-03T05:22:08.147Z,37.43
2017-12-03T05:24:42.447Z,38.40
2017-12-03T05:27:16.285Z,37.33
2017-12-03T05:29:49.387Z,34.93
2017-12-03T05:32:22.436Z,33.87
2017-12-03T05:34:55.505Z,26.73
2017-12-03T05:37:28.565Z,31.17
2017-12-03T05:40:03.041Z,27.57
2017-12-03T05:42:37.452Z,31.20
2017-12-03T05:45:11.319Z,30.80
2017-12-03T05:47:44.482Z,27.43
2017-12-03T05:50:18.317Z,27.27
2017-12-03T05:52:51.495Z,25.13
2017-12-03T05:55:24.889Z,29.67
2017-12-03T05:57:58.135Z,25.50
2017-12-03T06:00:31.282Z,23.73
2017-12-03T06:03:05.866Z,29.53
2017-12-03T06:05:39.310Z,30.13
2017-12-03T06:08:12.431Z,25.23
2017-12-03T06:10:45.640Z,21.63
2017-12-03T06:13:19.134Z,22.83
2017-12-03T06:15:51.989Z,23.80
2017-12-03T06:18:25.739Z,23.80
2017-12-03T06:20:58.946Z,22.20
2017-12-03T06:23:32.118Z,19.80
2017-12-03T06:26:05.767Z,18.73
2017-12-03T06:28:39.093Z,18.63
2017-12-03T06:31:13.131Z,19.37
2017-12-03T06:33:46.078Z,16.37
2017-12-03T06:38:59.562Z,12.27
2017-12-03T06:41:32.571Z,17.93
2017-12-03T06:44:05.846Z,17.13
2017-12-03T06:46:39.769Z,14.43
2017-12-03T06:49:15.493Z,19.17
2017-12-03T06:51:48.313Z,15.57
2017-12-03T06:54:21.594Z,16.30
2017-12-03T06:56:55.727Z,17.10
2017-12-03T06:59:29.686Z,15.73
2017-12-03T07:02:03.735Z,13.57
2017-12-03T07:04:37.395Z,13.90
2017-12-03T07:07:12.610Z,13.27
2017-12-03T07:09:46.727Z,12.27
2017-12-03T07:12:20.504Z,13.30
2017-12-03T07:14:55.652Z,12.23
2017-12-03T07:17:30.393Z,14.33
2017-12-03T07:20:03.498Z,12.97
2017-12-03T07:22:36.703Z,15.17
2017-12-03T07:25:09.791Z,12.87
2017-12-03T07:27:44.573Z,27.97
2017-12-03T07:30:17.549Z,23.63
2017-12-03T07:32:50.406Z,17.70
2017-12-03T07:35:23.406Z,19.63
2017-12-03T07:37:56.246Z,15.40
2017-12-03T07:40:29.422Z,15.30
2017-12-03T07:43:03.289Z,15.93
2017-12-03T07:45:36.468Z,17.63
2017-12-03T07:48:10.380Z,16.63
2017-12-03T07:50:45.198Z,16.00
2017-12-03T07:53:18.131Z,12.17
2017-12-03T07:55:51.071Z,12.93
2017-12-03T07:58:24.209Z,16.17
2017-12-03T08:00:57.321Z,11.13
2017-12-03T08:03:31.820Z,12.87
2017-12-03T08:06:04.952Z,12.50
2017-12-03T08:08:38.057Z,11.00
2017-12-03T08:11:12.857Z,12.13
2017-12-03T08:13:46.551Z,13.33
2017-12-03T08:16:20.323Z,14.17
2017-12-03T08:18:54.161Z,15.50
2017-12-03T08:21:27.435Z,23.40
2017-12-03T08:24:01.516Z,17.03
2017-12-03T08:26:34.510Z,16.50
2017-12-03T08:29:07.624Z,19.67
2017-12-03T08:31:42.361Z,18.57
2017-12-03T08:34:16.923Z,16.10
2017-12-03T08:36:49.861Z,19.07
2017-12-03T08:39:23.593Z,16.03
2017-12-03T08:41:57.540Z,17.43
2017-12-03T08:44:30.498Z,17.83
2017-12-03T08:47:03.523Z,19.13
2017-12-03T08:49:36.397Z,17.20
2017-12-03T08:52:09.557Z,17.67
2017-12-03T08:54:42.428Z,19.47
2017-12-03T08:57:15.403Z,16.63
2017-12-03T08:59:49.401Z,21.27
2017-12-03T09:02:22.377Z,20.87
2017-12-03T09:04:55.248Z,17.73
2017-12-03T09:07:28.978Z,22.70
2017-12-03T09:10:02.765Z,20.47
2017-12-03T09:12:35.721Z,21.23
2017-12-03T09:15:08.602Z,20.17
2017-12-03T09:17:43.198Z,23.23
2017-12-03T09:20:16.566Z,21.93
2017-12-03T09:22:49.555Z,20.97
2017-12-03T09:25:22.630Z,21.57
2017-12-03T09:27:56.473Z,23.53
2017-12-03T09:30:30.391Z,23.00
2017-12-03T09:33:03.477Z,22.83
2017-12-03T09:35:37.123Z,27.03
2017-12-03T09:38:10.141Z,26.60
2017-12-03T09:40:43.903Z,22.67
2017-12-03T09:43:17.129Z,24.20
2017-12-03T09:45:50.044Z,25.97
2017-12-03T09:48:23.192Z,25.67
2017-12-03T09:50:57.006Z,24.90
2017-12-03T09:53:30.795Z,28.10
2017-12-03T09:56:03.715Z,27.30
2017-12-03T09:58:36.702Z,25.13
2017-12-03T10:01:10.349Z,22.47
2017-12-03T10:03:44.695Z,26.77
2017-12-03T10:06:18.689Z,24.63
2017-12-03T10:08:51.817Z,35.10
2017-12-03T10:11:24.857Z,27.83
2017-12-03T10:13:57.905Z,34.93
2017-12-03T10:16:31.532Z,25.90
2017-12-03T10:19:04.594Z,31.93
2017-12-03T10:21:37.553Z,33.07
2017-12-03T10:24:11.300Z,33.93
2017-12-03T10:26:44.363Z,33.13
2017-12-03T10:29:17.506Z,35.90
2017-12-03T10:31:51.347Z,34.53
2017-12-03T10:34:24.369Z,36.03
2017-12-03T10:36:57.392Z,33.87
2017-12-03T10:39:31.070Z,33.83
2017-12-03T10:42:04.049Z,43.60
2017-12-03T10:44:36.976Z,52.53
2017-12-03T10:47:09.905Z,36.63
2017-12-03T10:49:42.938Z,40.83
2017-12-03T10:52:17.465Z,34.50
2017-12-03T10:54:50.512Z,40.50
2017-12-03T10:57:23.478Z,47.23
2017-12-03T10:59:56.408Z,32.60
2017-12-03T11:02:29.252Z,29.20
2017-12-03T11:05:02.943Z,36.57
2017-12-03T11:07:35.844Z,33.70
2017-12-03T11:10:08.894Z,30.23
2017-12-03T11:12:41.742Z,32.27
2017-12-03T11:15:14.708Z,28.87
2017-12-03T11:17:48.616Z,29.20
2017-12-03T11:20:21.592Z,39.20
2017-12-03T11:22:54.466Z,29.13
2017-12-03T11:25:27.422Z,37.57
2017-12-03T11:28:01.227Z,45.13
2017-12-03T11:30:34.122Z,35.67
2017-12-03T11:33:07.034Z,34.43
2017-12-03T11:35:40.756Z,33.43
2017-12-03T11:38:13.597Z,38.17
2017-12-03T11:40:46.563Z,43.87
2017-12-03T11:43:19.605Z,42.00
2017-12-03T11:45:52.574Z,33.20
2017-12-03T11:48:25.499Z,35.67
2017-12-03T11:50:59.063Z,34.83
2017-12-03T11:53:32.649Z,39.57
2017-12-03T11:56:06.549Z,52.67
2017-12-03T11:58:40.102Z,43.00
2017-12-03T12:01:12.949Z,54.50
2017-12-03T12:03:45.943Z,30.53
2017-12-03T12:06:19.682Z,31.67
2017-12-03T12:08:52.540Z,38.30
2017-12-03T12:11:25.441Z,42.37
2017-12-03T12:13:58.402Z,54.47
2017-12-03T12:16:31.555Z,40.60
2017-12-03T12:19:04.514Z,42.03
2017-12-03T12:21:38.899Z,52.67
2017-12-03T12:24:11.873Z,57.67
2017-12-03T12:26:44.440Z,51.87
2017-12-03T12:29:18.074Z,56.43
2017-12-03T12:31:51.898Z,45.17
2017-12-03T12:34:25.662Z,52.03
2017-12-03T12:36:59.539Z,74.73
2017-12-03T12:39:33.251Z,30.90
2017-12-03T12:42:07.093Z,85.80
2017-12-03T12:44:40.141Z,46.10
2017-12-03T12:47:14.122Z,42.37
2017-12-03T12:49:47.915Z,49.73
2017-12-03T12:52:20.740Z,48.07
2017-12-03T12:54:54.696Z,36.20
2017-12-03T12:57:27.865Z,73.53
2017-12-03T13:00:01.946Z,34.93
2017-12-03T13:02:35.533Z,30.57
2017-12-03T13:05:08.513Z,32.77
2017-12-03T13:07:41.652Z,38.27
2017-12-03T13:10:14.645Z,38.23
2017-12-03T13:12:48.354Z,45.63
2017-12-03T13:15:21.264Z,34.50
2017-12-03T13:17:54.206Z,58.57
2017-12-03T13:20:27.803Z,50.63
2017-12-03T13:23:01.482Z,42.83
2017-12-03T13:25:35.157Z,36.97
2017-12-03T13:28:08.702Z,28.13
2017-12-03T13:30:42.569Z,39.63
2017-12-03T13:33:16.365Z,52.43
2017-12-03T13:35:50.737Z,51.27
2017-12-03T13:38:23.679Z,31.70
2017-12-03T13:40:59.483Z,28.70
2017-12-03T13:43:32.486Z,26.80
2017-12-03T13:46:05.313Z,25.77
2017-12-03T13:48:38.370Z,28.17
2017-12-03T13:51:11.480Z,45.27
2017-12-03T13:53:45.265Z,32.57
2017-12-03T13:56:18.037Z,33.80
2017-12-03T13:58:51.600Z,32.20
2017-12-03T14:01:24.601Z,46.10
2017-12-03T14:03:57.263Z,25.90
2017-12-03T14:06:30.151Z,33.30
2017-12-03T14:09:03.893Z,24.47
2017-12-03T14:11:36.638Z,29.40
2017-12-03T14:14:09.406Z,27.77
2017-12-03T14:16:42.769Z,37.10
2017-12-03T14:19:15.469Z,27.23
2017-12-03T14:21:48.756Z,34.47
2017-12-03T14:24:21.404Z,27.53
2017-12-03T14:26:54.097Z,32.43
2017-12-03T14:29:27.393Z,22.57
2017-12-03T14:31:59.901Z,40.07
2017-12-03T14:34:32.424Z,29.47
2017-12-03T14:37:05.701Z,24.57
2017-12-03T14:39:38.289Z,34.87
2017-12-03T14:42:10.798Z,28.77
2017-12-03T14:44:43.346Z,30.93
2017-12-03T14:47:16.625Z,50.10
2017-12-03T14:49:49.160Z,36.73
2017-12-03T14:52:22.438Z,36.97
2017-12-03T14:54:54.975Z,37.70
2017-12-03T14:57:27.496Z,38.33
2017-12-03T15:00:00.798Z,34.03
2017-12-03T15:02:34.069Z,43.93
2017-12-03T15:05:06.600Z,31.13
2017-12-03T15:07:39.109Z,80.97
2017-12-03T15:10:11.635Z,58.20
2017-12-03T15:12:44.912Z,115.70
2017-12-03T15:15:17.460Z,104.23
2017-12-03T15:17:50.737Z,41.90
2017-12-03T15:20:23.276Z,81.40
2017-12-03T15:22:56.556Z,42.30
2017-12-03T15:25:29.092Z,39.13
2017-12-03T15:28:02.360Z,56.53
2017-12-03T15:30:34.905Z,37.87
2017-12-03T15:33:08.184Z,81.20
2017-12-03T15:35:40.722Z,48.90
2017-12-03T15:38:13.230Z,81.07
2017-12-03T15:40:46.547Z,57.80
2017-12-03T15:43:19.057Z,51.77
2017-12-03T15:45:52.368Z,51.00
2017-12-03T15:48:25.641Z,72.87
2017-12-03T15:50:58.169Z,61.47
2017-12-03T15:53:30.677Z,48.30
2017-12-03T15:56:03.219Z,42.93
2017-12-03T15:58:35.734Z,58.00
2017-12-03T16:01:08.333Z,56.30
2017-12-03T16:03:40.846Z,43.97
2017-12-03T16:06:13.389Z,53.03
2017-12-03T16:08:46.678Z,55.23
2017-12-03T16:11:19.225Z,57.47
2017-12-03T16:13:52.503Z,103.73
2017-12-03T16:16:25.028Z,60.73
2017-12-03T16:18:57.587Z,61.23
2017-12-03T16:21:30.148Z,85.53
2017-12-03T16:24:03.420Z,59.47
2017-12-03T16:26:36.717Z,69.23
2017-12-03T16:29:09.733Z,51.93
2017-12-03T16:31:42.258Z,55.07
2017-12-03T16:34:14.778Z,89.90
2017-12-03T16:36:47.323Z,101.77
2017-12-03T16:39:19.844Z,85.20
2017-12-03T16:41:52.447Z,94.97
2017-12-03T16:44:25.020Z,173.87
2017-12-03T16:46:58.344Z,76.00
2017-12-03T16:49:35.597Z,117.67
2017-12-03T16:52:08.142Z,130.97
2017-12-03T16:54:40.653Z,64.17
2017-12-03T16:57:13.968Z,299.87
2017-12-03T16:59:46.513Z,78.10
2017-12-03T17:02:19.058Z,365.27
2017-12-03T17:04:51.566Z,86.37
2017-12-03T17:07:24.103Z,164.93
2017-12-03T17:09:56.608Z,194.03
2017-12-03T17:12:29.140Z,117.97
2017-12-03T17:15:01.656Z,121.13
2017-12-03T17:17:34.180Z,88.77
2017-12-03T17:20:07.453Z,75.17
2017-12-03T17:22:40.796Z,162.23
2017-12-03T17:25:13.305Z,116.77
2017-12-03T17:27:45.833Z,123.20
2017-12-03T17:30:19.163Z,62.17
2017-12-03T17:32:51.672Z,90.43
2017-12-03T17:35:24.181Z,57.43
2017-12-03T17:37:56.725Z,139.30
2017-12-03T17:40:29.236Z,277.90
2017-12-03T17:43:01.769Z,68.87
2017-12-03T17:45:34.293Z,133.30
2017-12-03T17:48:06.824Z,82.37
2017-12-03T17:50:39.455Z,243.10
2017-12-03T17:53:12.804Z,117.03
2017-12-03T17:55:45.325Z,150.33
2017-12-03T17:58:17.860Z,115.20
2017-12-03T18:00:50.360Z,88.87
2017-12-03T18:03:22.901Z,253.13
2017-12-03T18:05:55.455Z,61.53
2017-12-03T18:08:27.953Z,94.57
2017-12-03T18:11:00.463Z,93.80
2017-12-03T18:13:32.997Z,231.37
2017-12-03T18:16:06.282Z,58.13
2017-12-03T18:18:38.806Z,80.33
2017-12-03T18:21:11.317Z,217.87
2017-12-03T18:23:44.609Z,78.70
2017-12-03T18:26:17.116Z,96.23
2017-12-03T18:28:50.089Z,95.03
2017-12-03T18:31:22.597Z,64.17
2017-12-03T18:33:55.145Z,88.63
2017-12-03T18:36:28.421Z,71.87
2017-12-03T18:39:00.977Z,121.07
2017-12-03T18:41:34.253Z,144.60
2017-12-03T18:44:06.798Z,103.00
2017-12-03T18:46:40.077Z,54.07
2017-12-03T18:49:12.623Z,72.10
2017-12-03T18:51:45.132Z,112.40
2017-12-03T18:54:18.452Z,63.27
2017-12-03T18:56:51.725Z,62.07
2017-12-03T18:59:24.297Z,344.80
2017-12-03T19:01:56.865Z,110.37
2017-12-03T19:04:29.398Z,126.77
2017-12-03T19:07:01.904Z,68.70
2017-12-03T19:09:34.434Z,72.77
2017-12-03T19:12:06.942Z,83.80
2017-12-03T19:14:40.304Z,87.10
2017-12-03T19:17:13.579Z,81.90
2017-12-03T19:19:46.108Z,163.57
2017-12-03T19:22:18.818Z,67.50
2017-12-03T19:24:51.366Z,107.57
2017-12-03T19:27:23.872Z,94.07
2017-12-03T19:29:56.413Z,121.60
2017-12-03T19:32:28.932Z,153.27
2017-12-03T19:35:02.225Z,87.03
2017-12-03T19:37:34.729Z,111.70
2017-12-03T19:40:07.255Z,206.00
2017-12-03T19:42:39.764Z,146.47
2017-12-03T19:45:13.080Z,226.17
2017-12-03T19:47:46.357Z,103.53
2017-12-03T19:50:18.893Z,123.90
2017-12-03T19:52:51.395Z,84.37
2017-12-03T19:55:24.693Z,83.53
2017-12-03T19:57:57.209Z,214.13
2017-12-03T20:00:29.761Z,227.77
2017-12-03T20:03:02.273Z,94.23
2017-12-03T20:05:34.825Z,160.03
2017-12-03T20:08:08.109Z,75.50
2017-12-03T20:10:40.758Z,151.97
2017-12-03T20:13:14.054Z,84.40
2017-12-03T20:15:46.583Z,82.30
2017-12-03T20:18:19.869Z,126.60
2017-12-03T20:20:52.422Z,383.83
2017-12-03T20:23:24.938Z,171.37
2017-12-03T20:25:57.484Z,143.53
2017-12-03T20:28:30.002Z,205.00
2017-12-03T20:31:03.512Z,340.10
2017-12-03T20:33:36.800Z,239.00
2017-12-03T20:36:09.352Z,140.57
2017-12-03T20:38:42.635Z,421.03
2017-12-03T20:41:15.181Z,335.40
2017-12-03T20:43:48.451Z,358.23
2017-12-03T20:46:20.993Z,304.37
2017-12-03T20:48:54.261Z,409.47
2017-12-03T20:51:26.792Z,231.37
2017-12-03T20:53:59.297Z,213.83
2017-12-03T20:56:31.828Z,331.23
2017-12-03T20:59:05.105Z,261.13
2017-12-03T21:01:38.454Z,148.10
2017-12-03T21:04:10.957Z,171.30
2017-12-03T21:06:43.504Z,215.73
2017-12-03T21:09:16.005Z,86.30
2017-12-03T21:11:48.544Z,88.30
2017-12-03T21:14:21.055Z,70.83
2017-12-03T21:16:53.581Z,86.30
2017-12-03T21:19:26.857Z,217.90
2017-12-03T21:21:59.401Z,193.37
2017-12-03T21:24:32.677Z,216.47
2017-12-03T21:27:05.219Z,126.67
2017-12-03T21:29:38.508Z,138.90
2017-12-03T21:32:11.042Z,139.67
2017-12-03T21:34:44.333Z,129.13
2017-12-03T21:37:16.865Z,333.13
2017-12-03T21:39:50.137Z,296.30
2017-12-03T21:42:22.669Z,187.57
2017-12-03T21:44:55.944Z,187.50
2017-12-03T21:47:28.482Z,169.60
2017-12-03T21:50:00.989Z,136.73
2017-12-03T21:52:34.289Z,67.97
2017-12-03T21:55:06.798Z,108.57
2017-12-03T21:57:39.323Z,163.03
2017-12-03T22:00:16.579Z,180.00
2017-12-03T22:02:49.108Z,170.17
2017-12-03T22:05:21.617Z,181.87
2017-12-03T22:07:54.150Z,151.60
2017-12-03T22:10:27.186Z,219.80
2017-12-03T22:13:01.027Z,177.60
2017-12-03T22:15:35.444Z,117.53
2017-12-03T22:18:08.562Z,154.97
2017-12-03T22:20:41.931Z,162.03
2017-12-03T22:23:15.001Z,155.10
2017-12-03T22:25:47.948Z,160.07
2017-12-03T22:28:20.760Z,130.07
2017-12-03T22:30:53.272Z,108.80
2017-12-03T22:33:25.806Z,139.57
2017-12-03T22:35:59.164Z,132.93
2017-12-03T22:38:32.165Z,180.03
2017-12-03T22:41:05.103Z,247.33
2017-12-03T22:43:38.828Z,169.87
2017-12-03T22:46:11.831Z,146.57
2017-12-03T22:48:44.854Z,83.50
2017-12-03T22:51:17.982Z,68.67
2017-12-03T22:53:51.165Z,90.17
2017-12-03T22:56:24.059Z,128.43
2017-12-03T22:58:57.712Z,184.50
2017-12-03T23:01:30.616Z,270.93
2017-12-03T23:04:03.386Z,88.70
2017-12-03T23:06:36.997Z,142.30
2017-12-03T23:09:11.060Z,139.03
2017-12-03T23:11:44.956Z,170.00
2017-12-03T23:14:18.936Z,153.17
2017-12-03T23:16:52.617Z,108.93
2017-12-03T23:19:27.272Z,143.90
2017-12-03T23:22:00.223Z,97.03
2017-12-03T23:24:33.266Z,101.60
2017-12-03T23:27:07.200Z,100.53
2017-12-03T23:29:39.870Z,99.13
2017-12-03T23:32:12.819Z,79.20
2017-12-03T23:34:45.946Z,92.57
2017-12-03T23:37:19.021Z,82.33
2017-12-03T23:39:52.033Z,78.70
2017-12-03T23:42:24.707Z,89.33
2017-12-03T23:44:57.571Z,66.37
2017-12-03T23:47:32.361Z,84.27
2017-12-03T23:50:06.217Z,62.30
2017-12-03T23:52:40.071Z,63.70
2017-12-03T23:55:13.195Z,83.73
2017-12-03T23:57:46.287Z,67.00
